Time;durP1;ratioP1;P1;durP2;ratioP2;P2;SDS_P1;SDS_P2;PMS_P1;PMS_P2;Temp;Humidity;BMP_temperature;BMP_pressure;BME280_temperature;BME280_humidity;BME280_pressure;Samples;Min_cycle;Max_cycle;Signal;HPM_P1;HPM_P2
2023/07/17 05:02:57;;;;;;;8.70;3.20;;;20.00;94.60;;;;;;5220284;23;20051;-75
2023/07/17 05:05:23;;;;;;;6.63;2.95;;;20.00;94.90;;;;;;4927072;29;20039;-75
2023/07/17 05:07:49;;;;;;;6.72;3.00;;;20.20;94.50;;;;;;4927800;29;20027;-75
2023/07/17 05:10:17;;;;;;;7.03;3.45;;;20.40;94.20;;;;;;4927282;29;20044;-75
2023/07/17 05:12:43;;;;;;;6.50;3.20;;;20.40;93.90;;;;;;4927452;29;20205;-75
2023/07/17 05:15:10;;;;;;;6.78;2.95;;;20.60;93.60;;;;;;4927578;29;20313;-74
2023/07/17 05:17:36;;;;;;;8.77;3.55;;;20.60;93.40;;;;;;4926951;29;20028;-74
2023/07/17 05:20:05;;;;;;;9.82;3.50;;;20.50;93.40;;;;;;4926725;29;20146;-72
2023/07/17 05:22:31;;;;;;;7.95;3.67;;;20.50;93.60;;;;;;4924000;29;20053;-74
2023/07/17 05:25:00;;;;;;;7.97;3.58;;;20.50;93.40;;;;;;4908681;29;20068;-74
2023/07/17 05:27:25;;;;;;;8.77;3.65;;;20.40;93.50;;;;;;4908001;29;20314;-74
2023/07/17 05:29:52;;;;;;;8.55;3.28;;;20.60;93.40;;;;;;4924346;29;20055;-74
2023/07/17 05:32:18;;;;;;;6.63;3.55;;;20.70;93.10;;;;;;4923968;29;20337;-74
2023/07/17 05:34:45;;;;;;;9.93;4.03;;;20.90;92.70;;;;;;4909401;29;20052;-74
2023/07/17 05:37:11;;;;;;;7.15;3.20;;;21.10;92.40;;;;;;4942479;29;20103;-75
2023/07/17 05:39:38;;;;;;;7.15;3.72;;;21.30;91.90;;;;;;4926960;29;20027;-74
2023/07/17 05:42:04;;;;;;;10.45;3.50;;;21.40;91.60;;;;;;4927427;29;20038;-74
2023/07/17 05:44:30;;;;;;;6.80;3.20;;;21.60;91.20;;;;;;4942392;29;20099;-74
2023/07/17 05:46:57;;;;;;;6.82;2.95;;;21.70;90.30;;;;;;4926909;29;20221;-75
2023/07/17 05:49:22;;;;;;;6.95;2.97;;;21.80;90.30;;;;;;4926645;29;20020;-74
2023/07/17 05:51:48;;;;;;;6.82;3.28;;;21.80;90.40;;;;;;4927190;29;20040;-73
2023/07/17 05:54:14;;;;;;;7.50;3.45;;;21.90;90.40;;;;;;4927059;29;20187;-74
2023/07/17 05:56:40;;;;;;;7.28;4.05;;;21.90;90.70;;;;;;4925975;29;20103;-74
2023/07/17 05:59:06;;;;;;;5.88;2.90;;;21.90;90.90;;;;;;4928458;29;20099;-75
2023/07/17 06:01:31;;;;;;;6.15;2.75;;;21.90;88.30;;;;;;4924094;29;20033;-74
2023/07/17 06:03:57;;;;;;;5.93;2.47;;;21.90;88.00;;;;;;4909118;29;20044;-74
2023/07/17 06:06:24;;;;;;;6.20;2.35;;;21.80;86.00;;;;;;4908629;29;20040;-75
2023/07/17 06:08:50;;;;;;;9.00;3.00;;;21.80;85.60;;;;;;4908923;29;20044;-74
2023/07/17 06:11:16;;;;;;;6.95;2.72;;;21.80;85.30;;;;;;4908670;29;20064;-75
2023/07/17 06:13:42;;;;;;;6.40;2.95;;;21.80;85.80;;;;;;4908086;29;20051;-75
2023/07/17 06:16:07;;;;;;;6.40;2.60;;;21.90;85.40;;;;;;4908581;29;20100;-75
2023/07/17 06:18:33;;;;;;;6.53;2.83;;;21.90;85.30;;;;;;4908189;29;20222;-75
2023/07/17 06:20:59;;;;;;;6.60;2.90;;;21.80;85.60;;;;;;4923257;29;20084;-73
2023/07/17 06:23:25;;;;;;;7.80;2.90;;;21.90;85.80;;;;;;4907562;29;20100;-74
2023/07/17 06:25:50;;;;;;;5.18;2.10;;;21.80;84.50;;;;;;4908018;29;20024;-74
2023/07/17 06:28:19;;;;;;;8.68;2.35;;;21.90;84.90;;;;;;4908246;29;20044;-76
2023/07/17 06:30:46;;;;;;;5.20;2.25;;;21.90;84.50;;;;;;4908004;29;20040;-74
2023/07/17 06:33:13;;;;;;;7.30;2.55;;;22.00;84.70;;;;;;4908564;29;20080;-74
2023/07/17 06:35:39;;;;;;;6.22;2.03;;;22.10;84.10;;;;;;4907695;29;20091;-75
2023/07/17 06:38:05;;;;;;;5.65;2.03;;;22.20;83.90;;;;;;4908407;29;20306;-76
2023/07/17 06:40:31;;;;;;;4.95;2.42;;;22.20;83.50;;;;;;4907604;29;20028;-75
2023/07/17 06:42:56;;;;;;;10.80;2.97;;;22.40;83.20;;;;;;4907057;29;20032;-74
2023/07/17 06:45:22;;;;;;;5.15;2.08;;;22.40;82.80;;;;;;4908202;29;20247;-74
2023/07/17 06:47:48;;;;;;;5.18;2.28;;;22.50;82.20;;;;;;4907664;29;20040;-75
2023/07/17 06:50:13;;;;;;;7.05;2.33;;;22.60;81.90;;;;;;4900043;29;20048;-73
2023/07/17 06:52:41;;;;;;;7.50;2.38;;;22.60;82.00;;;;;;4907007;29;20029;-74
2023/07/17 06:55:08;;;;;;;8.32;2.45;;;22.70;81.40;;;;;;4907902;29;20028;-77
2023/07/17 06:57:34;;;;;;;7.00;2.50;;;22.80;81.20;;;;;;4923571;29;20072;-76
2023/07/17 07:00:05;;;;;;;5.85;2.40;;;23.00;80.60;;;;;;4907924;29;20024;-78
2023/07/17 07:02:31;;;;;;;6.82;2.40;;;23.00;80.00;;;;;;4907306;29;20067;-73
2023/07/17 07:04:57;;;;;;;5.65;2.20;;;23.00;78.90;;;;;;4907719;29;20179;-75
2023/07/17 07:07:23;;;;;;;6.15;2.38;;;23.10;78.90;;;;;;4907873;29;20065;-73
2023/07/17 07:09:48;;;;;;;6.07;2.30;;;23.00;78.50;;;;;;4907254;29;20036;-73
2023/07/17 07:12:15;;;;;;;6.93;2.58;;;23.10;79.20;;;;;;4907788;29;20325;-74
2023/07/17 07:14:41;;;;;;;5.90;2.88;;;23.20;78.10;;;;;;4907086;29;20040;-73
2023/07/17 07:17:07;;;;;;;6.50;2.55;;;23.30;76.40;;;;;;4907877;29;20041;-73
2023/07/17 07:19:33;;;;;;;7.10;2.47;;;23.30;77.60;;;;;;4906899;29;20103;-73
2023/07/17 07:21:59;;;;;;;7.90;2.90;;;23.40;76.00;;;;;;4907803;29;20036;-73
2023/07/17 07:24:25;;;;;;;6.93;2.92;;;23.40;74.30;;;;;;4907531;29;20107;-73
2023/07/17 07:26:51;;;;;;;8.20;3.45;;;23.50;71.70;;;;;;4907056;29;20028;-74
2023/07/17 07:29:19;;;;;;;6.75;3.30;;;23.70;71.00;;;;;;4907376;29;20040;-74
2023/07/17 07:31:45;;;;;;;;;;;23.90;69.80;;;;;;4906637;29;20040;-73
2023/07/17 07:34:10;;;;;;;7.47;3.10;;;23.90;69.50;;;;;;4909656;29;19908;-73
2023/07/17 07:36:37;;;;;;;8.40;3.35;;;23.90;70.10;;;;;;4910153;29;20036;-72
2023/07/17 07:39:05;;;;;;;9.18;3.10;;;23.90;69.90;;;;;;4911870;29;20024;-74
2023/07/17 07:41:32;;;;;;;8.15;3.45;;;23.90;70.70;;;;;;4909495;29;20044;-74
2023/07/17 07:43:58;;;;;;;6.68;3.35;;;24.00;70.00;;;;;;4911977;29;20103;-74
2023/07/17 07:46:24;;;;;;;9.45;3.30;;;23.90;69.80;;;;;;4911205;29;20179;-74
2023/07/17 07:48:50;;;;;;;6.03;3.10;;;23.90;69.70;;;;;;4910537;29;20307;-74
2023/07/17 07:51:15;;;;;;;7.32;3.10;;;24.00;68.20;;;;;;4910039;29;20080;-74
2023/07/17 07:53:41;;;;;;;7.35;3.50;;;24.10;67.30;;;;;;4910626;29;20033;-75
2023/07/17 07:56:07;;;;;;;6.28;3.22;;;24.10;68.70;;;;;;4909581;29;20024;-73
2023/07/17 07:58:35;;;;;;;8.70;3.45;;;24.00;68.00;;;;;;4910260;29;20307;-73
2023/07/17 08:01:01;;;;;;;6.63;3.50;;;24.10;68.40;;;;;;4910577;29;20051;-72
2023/07/17 08:03:27;;;;;;;10.18;3.70;;;24.40;67.00;;;;;;4909009;29;20048;-74
2023/07/17 08:05:55;;;;;;;8.20;3.40;;;24.50;67.00;;;;;;4910812;29;20028;-74
2023/07/17 08:08:20;;;;;;;5.82;3.17;;;24.50;66.60;;;;;;4909486;29;20191;-73
2023/07/17 08:10:46;;;;;;;6.55;3.17;;;24.60;66.40;;;;;;4909254;29;20061;-73
2023/07/17 08:13:12;;;;;;;6.47;3.00;;;24.60;67.30;;;;;;4911044;29;20036;-74
2023/07/17 08:15:37;;;;;;;10.43;3.00;;;24.60;67.40;;;;;;4909817;29;20020;-74
2023/07/17 08:18:03;;;;;;;7.35;3.03;;;24.70;67.00;;;;;;4909251;29;20032;-74
2023/07/17 08:20:29;;;;;;;5.55;3.03;;;24.80;67.70;;;;;;4909275;29;20040;-78
2023/07/17 08:22:57;;;;;;;8.63;3.42;;;24.90;67.80;;;;;;4910343;29;20044;-74
2023/07/17 08:25:23;;;;;;;7.47;2.95;;;24.80;68.60;;;;;;4910738;29;20032;-74
2023/07/17 08:27:49;;;;;;;5.88;3.53;;;24.70;68.30;;;;;;4909885;29;20208;-73
2023/07/17 08:30:15;;;;;;;6.25;3.40;;;24.70;66.60;;;;;;4910049;29;20052;-77
2023/07/17 08:32:41;;;;;;;5.68;2.92;;;24.90;64.10;;;;;;4908846;29;20322;-74
2023/07/17 08:35:07;;;;;;;11.35;3.45;;;25.10;63.20;;;;;;4910460;29;20091;-75
2023/07/17 08:37:33;;;;;;;6.55;2.75;;;25.00;62.60;;;;;;4894732;29;20037;-75
2023/07/17 08:39:59;;;;;;;9.55;3.53;;;25.20;63.10;;;;;;4924670;29;20059;-74
2023/07/17 08:42:25;;;;;;;5.80;2.83;;;25.50;61.90;;;;;;4910338;29;20032;-74
2023/07/17 08:44:52;;;;;;;6.32;3.20;;;25.70;61.10;;;;;;4909801;29;20032;-74
2023/07/17 08:47:20;;;;;;;7.28;2.75;;;25.80;61.80;;;;;;4909634;29;20042;-75
2023/07/17 08:49:47;;;;;;;9.10;3.17;;;26.10;60.60;;;;;;4908805;29;20040;-73
2023/07/17 08:52:14;;;;;;;7.10;2.73;;;26.30;60.00;;;;;;4908714;29;20045;-73
2023/07/17 08:54:40;;;;;;;8.45;3.22;;;26.40;58.40;;;;;;4908299;29;20055;-73
2023/07/17 08:57:06;;;;;;;7.72;2.53;;;26.80;58.30;;;;;;4909744;29;20024;-74
2023/07/17 08:59:34;;;;;;;5.85;2.85;;;27.10;56.80;;;;;;4909629;29;20247;-73
2023/07/17 09:02:02;;;;;;;5.80;2.77;;;27.40;56.80;;;;;;4908555;29;20080;-76
2023/07/17 09:04:30;;;;;;;7.53;3.40;;;27.20;57.20;;;;;;4908823;29;20037;-76
2023/07/17 09:06:56;;;;;;;5.38;2.55;;;27.30;57.50;;;;;;4909931;29;20317;-74
2023/07/17 09:09:22;;;;;;;7.72;3.10;;;27.00;57.20;;;;;;4909233;29;20041;-73
2023/07/17 09:12:08;;;;;;;8.10;3.25;;;27.20;58.00;;;;;;4909066;29;20044;-75
2023/07/17 09:14:35;;;;;;;4.93;2.53;;;27.10;58.80;;;;;;4909360;29;20170;-74
2023/07/17 09:17:07;;;;;;;6.75;2.60;;;27.00;58.30;;;;;;4908270;29;20028;-74
2023/07/17 09:19:34;;;;;;;6.22;3.30;;;27.30;58.30;;;;;;4907949;29;20099;-74
2023/07/17 09:22:05;;;;;;;5.13;2.47;;;27.60;57.60;;;;;;4909095;29;20246;-73
2023/07/17 09:24:38;;;;;;;8.70;3.28;;;28.00;57.30;;;;;;4908754;29;20036;-74
2023/07/17 09:27:07;;;;;;;9.07;2.60;;;28.00;57.00;;;;;;4908433;29;20028;-74
2023/07/17 09:29:33;;;;;;;5.85;2.97;;;27.80;57.70;;;;;;4907610;29;20103;-73
2023/07/17 09:32:18;;;;;;;7.28;3.05;;;27.90;58.00;;;;;;4909226;29;20211;-74
2023/07/17 09:34:48;;;;;;;10.40;3.08;;;28.00;57.70;;;;;;4920295;29;20036;-76
2023/07/17 09:37:14;;;;;;;9.02;2.80;;;28.00;58.30;;;;;;4892266;29;20321;-73
2023/07/17 09:39:40;;;;;;;6.57;3.13;;;27.90;58.60;;;;;;4908724;29;20028;-74
2023/07/17 09:42:22;;;;;;;7.95;3.58;;;27.70;58.40;;;;;;4909134;29;20048;-73
2023/07/17 09:44:49;;;;;;;7.38;3.30;;;27.80;58.50;;;;;;4908647;29;20052;-74
2023/07/17 09:47:16;;;;;;;5.82;3.22;;;28.10;57.70;;;;;;4908808;29;20032;-74
2023/07/17 09:49:42;;;;;;;6.35;3.33;;;28.00;57.80;;;;;;4908558;29;20037;-73
2023/07/17 09:52:08;;;;;;;5.28;2.90;;;28.10;58.20;;;;;;4908722;29;20037;-73
2023/07/17 09:54:36;;;;;;;6.28;3.40;;;28.30;57.70;;;;;;4908254;29;20181;-73
2023/07/17 09:57:04;;;;;;;7.00;3.28;;;28.50;57.30;;;;;;4909102;29;20038;-72
2023/07/17 09:59:32;;;;;;;;;;;28.30;57.20;;;;;;4909507;29;20067;-72
2023/07/17 10:02:00;;;;;;;6.05;3.00;;;28.60;57.70;;;;;;4908512;29;19915;-73
2023/07/17 10:04:30;;;;;;;;;;;28.90;57.50;;;;;;4908978;29;20067;-72
2023/07/17 10:06:58;;;;;;;6.28;3.10;;;28.80;56.80;;;;;;4908719;29;19949;-72
2023/07/17 10:09:25;;;;;;;7.15;3.20;;;28.80;56.90;;;;;;4908641;29;20044;-73
2023/07/17 10:11:51;;;;;;;6.28;3.10;;;29.00;57.10;;;;;;4907784;29;20059;-74
2023/07/17 10:14:17;;;;;;;5.90;3.28;;;29.10;56.50;;;;;;4908771;29;20028;-73
2023/07/17 10:16:43;;;;;;;7.18;3.20;;;29.20;55.80;;;;;;4908056;29;20095;-71
2023/07/17 10:19:09;;;;;;;7.07;3.08;;;29.30;56.40;;;;;;4908588;29;20306;-74
2023/07/17 10:21:55;;;;;;;8.07;3.33;;;29.20;56.90;;;;;;4908062;29;20040;-73
2023/07/17 10:24:24;;;;;;;4.95;2.80;;;29.10;57.10;;;;;;4908257;29;20060;-73
2023/07/17 10:26:50;;;;;;;8.05;3.20;;;28.90;56.10;;;;;;4906804;29;20064;-72
2023/07/17 10:29:30;;;;;;;6.80;3.25;;;28.90;56.50;;;;;;4908419;29;20029;-73
2023/07/17 10:31:57;;;;;;;8.05;3.63;;;29.30;55.90;;;;;;4907742;29;20041;-72
2023/07/17 10:34:53;;;;;;;6.15;3.45;;;29.20;55.80;;;;;;4908078;29;20067;-72
2023/07/17 10:37:31;;;;;;;5.75;3.15;;;28.70;56.20;;;;;;4908293;29;20072;-74
2023/07/17 10:40:06;;;;;;;6.53;2.95;;;28.40;57.30;;;;;;4907486;29;20028;-72
2023/07/17 10:42:33;;;;;;;6.13;2.97;;;28.60;56.70;;;;;;4908135;29;20382;-71
2023/07/17 10:45:09;;;;;;;5.40;2.88;;;28.50;55.90;;;;;;4908174;29;20032;-73
2023/07/17 10:47:35;;;;;;;6.78;3.53;;;28.70;56.00;;;;;;4907348;29;20254;-74
2023/07/17 10:50:05;;;;;;;5.05;2.95;;;28.70;55.70;;;;;;4908175;29;20040;-74
2023/07/17 10:52:34;;;;;;;8.55;3.72;;;28.80;56.30;;;;;;4907613;29;20095;-75
2023/07/17 10:55:05;;;;;;;7.07;2.92;;;28.80;55.30;;;;;;4922374;29;20045;-72
2023/07/17 10:57:36;;;;;;;5.55;3.15;;;28.70;55.60;;;;;;4907317;29;20026;-74
2023/07/17 11:00:03;;;;;;;7.28;2.97;;;28.80;55.70;;;;;;4907485;29;20036;-75
2023/07/17 11:02:28;;;;;;;7.95;3.80;;;28.30;56.40;;;;;;4907147;29;20119;-73
2023/07/17 11:05:01;;;;;;;7.38;2.95;;;28.50;56.40;;;;;;4922033;29;20035;-74
2023/07/17 11:07:31;;;;;;;5.68;2.90;;;28.40;56.70;;;;;;4907860;29;20336;-75
2023/07/17 11:09:57;;;;;;;5.93;3.05;;;28.20;56.90;;;;;;4907279;29;20079;-73
2023/07/17 11:12:26;;;;;;;5.97;2.88;;;28.20;56.20;;;;;;4907409;29;20312;-74
2023/07/17 11:14:52;;;;;;;6.38;3.50;;;28.20;56.40;;;;;;4905856;29;20289;-73
2023/07/17 11:17:18;;;;;;;5.80;2.85;;;28.30;56.10;;;;;;4906731;29;20062;-72
2023/07/17 11:19:44;;;;;;;6.78;3.20;;;28.40;55.90;;;;;;4907005;29;20330;-73
2023/07/17 11:22:11;;;;;;;5.53;2.90;;;28.30;56.20;;;;;;4906452;29;20111;-74
2023/07/17 11:24:37;;;;;;;7.20;3.20;;;28.50;56.00;;;;;;4906795;29;20084;-74
2023/07/17 11:27:03;;;;;;;5.15;3.03;;;28.50;56.10;;;;;;4905845;29;20296;-75
2023/07/17 11:29:30;;;;;;;6.07;2.78;;;28.50;55.40;;;;;;4907043;29;20040;-75
2023/07/17 11:31:59;;;;;;;4.88;2.83;;;28.50;55.80;;;;;;4906978;29;20248;-74
2023/07/17 11:34:25;;;;;;;4.53;2.80;;;28.40;55.80;;;;;;4907018;29;20047;-75
2023/07/17 11:36:51;;;;;;;7.78;3.53;;;29.00;56.10;;;;;;4906906;29;20036;-73
2023/07/17 11:39:22;;;;;;;7.55;3.53;;;29.80;55.20;;;;;;4907443;29;20033;-73
2023/07/17 11:41:53;;;;;;;7.72;3.17;;;30.60;53.30;;;;;;4906686;29;20048;-74
2023/07/17 11:44:31;;;;;;;5.65;2.88;;;31.20;52.60;;;;;;4907197;29;20032;-73
2023/07/17 11:47:06;;;;;;;9.30;3.10;;;31.70;52.80;;;;;;4907083;29;20334;-73
2023/07/17 11:49:34;;;;;;;7.90;3.22;;;32.30;51.50;;;;;;4907290;29;20067;-73
2023/07/17 11:51:59;;;;;;;4.85;3.17;;;33.30;51.00;;;;;;4906445;29;20044;-73
2023/07/17 11:54:29;;;;;;;4.85;3.03;;;34.50;49.80;;;;;;4906925;29;20110;-75
2023/07/17 11:57:00;;;;;;;5.85;3.40;;;34.70;49.20;;;;;;4906449;29;20028;-73
2023/07/17 11:59:26;;;;;;;5.85;3.05;;;34.50;49.70;;;;;;4906890;29;20225;-73
2023/07/17 12:01:52;;;;;;;5.85;3.05;;;34.50;49.80;;;;;;4906555;29;20041;-73
2023/07/17 12:04:26;;;;;;;6.07;3.03;;;34.40;49.10;;;;;;4907205;29;20052;-72
2023/07/17 12:06:55;;;;;;;5.45;3.00;;;34.30;48.90;;;;;;4906463;29;20276;-74
2023/07/17 12:09:22;;;;;;;7.07;3.05;;;33.40;50.20;;;;;;4907382;29;20027;-75
2023/07/17 12:11:48;;;;;;;5.63;2.80;;;33.30;50.40;;;;;;4906467;29;20044;-74
2023/07/17 12:14:15;;;;;;;9.25;3.30;;;32.80;50.80;;;;;;4907011;29;20087;-72
2023/07/17 12:16:42;;;;;;;7.38;2.97;;;32.80;50.10;;;;;;4906695;29;20041;-73
2023/07/17 12:19:08;;;;;;;5.63;2.92;;;32.60;51.60;;;;;;4907193;29;20069;-72
2023/07/17 12:21:33;;;;;;;4.75;2.80;;;33.30;51.00;;;;;;4906881;29;20040;-73
2023/07/17 12:23:59;;;;;;;4.95;2.83;;;33.30;50.90;;;;;;4906570;29;20126;-75
2023/07/17 12:26:25;;;;;;;5.35;2.83;;;33.80;50.30;;;;;;4906768;29;20079;-73
2023/07/17 12:28:51;;;;;;;4.00;2.38;;;33.90;50.00;;;;;;4908437;29;20032;-73
2023/07/17 12:31:17;;;;;;;7.90;3.35;;;35.20;48.70;;;;;;4910278;29;20322;-73
2023/07/17 12:33:43;;;;;;;6.80;2.67;;;35.40;48.60;;;;;;4910031;29;20020;-73
2023/07/17 12:36:09;;;;;;;5.55;2.80;;;35.90;49.10;;;;;;4910466;29;20028;-74
2023/07/17 12:38:35;;;;;;;8.18;2.95;;;34.30;48.60;;;;;;4910611;29;20036;-77
2023/07/17 12:41:00;;;;;;;5.05;2.97;;;34.00;49.80;;;;;;4908728;29;20040;-73
2023/07/17 12:43:26;;;;;;;5.25;2.90;;;32.30;50.60;;;;;;4909232;29;20099;-72
2023/07/17 12:45:52;;;;;;;5.45;3.05;;;31.80;51.40;;;;;;4908550;29;20043;-72
2023/07/17 12:48:18;;;;;;;5.20;2.75;;;31.40;52.00;;;;;;4910298;29;20068;-73
2023/07/17 12:50:43;;;;;;;6.15;2.92;;;31.00;53.30;;;;;;4909522;29;20377;-71
2023/07/17 12:53:09;;;;;;;6.85;2.78;;;30.90;52.90;;;;;;4910328;29;20033;-72
2023/07/17 12:55:37;;;;;;;5.65;2.88;;;31.10;52.70;;;;;;4910111;29;20040;-75
2023/07/17 12:58:03;;;;;;;;;;;30.50;52.30;;;;;;4910031;29;20036;-72
2023/07/17 13:00:29;;;;;;;5.45;3.00;;;30.00;53.10;;;;;;4909657;29;20086;-71
2023/07/17 13:02:54;;;;;;;5.28;2.90;;;29.80;53.80;;;;;;4909057;29;20054;-71
2023/07/17 13:05:20;;;;;;;5.03;2.72;;;30.30;53.90;;;;;;4910007;29;20101;-71
2023/07/17 13:07:46;;;;;;;5.03;2.88;;;30.60;53.40;;;;;;4908120;29;20040;-72
2023/07/17 13:10:11;;;;;;;5.43;2.70;;;31.40;52.50;;;;;;4909615;29;20032;-72
2023/07/17 13:12:37;;;;;;;6.60;2.92;;;31.90;51.40;;;;;;4909643;29;20078;-73
2023/07/17 13:15:03;;;;;;;5.93;2.80;;;32.40;51.70;;;;;;4909283;29;20268;-73
2023/07/17 13:17:29;;;;;;;4.03;2.58;;;32.40;51.50;;;;;;4909570;29;20370;-72
2023/07/17 13:19:55;;;;;;;5.43;2.70;;;32.20;51.20;;;;;;4909284;29;20028;-72
2023/07/17 13:22:20;;;;;;;5.95;2.92;;;32.50;51.70;;;;;;4909562;29;20025;-72
2023/07/17 13:24:46;;;;;;;7.00;3.22;;;32.90;51.50;;;;;;4909087;29;20064;-73
2023/07/17 13:27:12;;;;;;;6.75;3.13;;;33.10;51.60;;;;;;4909027;29;20033;-73
2023/07/17 13:29:38;;;;;;;7.32;3.13;;;32.50;52.10;;;;;;4909512;29;20097;-72
2023/07/17 13:32:05;;;;;;;5.68;2.65;;;32.00;52.50;;;;;;4909004;29;20271;-72
2023/07/17 13:34:32;;;;;;;5.45;2.85;;;31.90;52.50;;;;;;4909280;29;20035;-71
2023/07/17 13:36:58;;;;;;;7.47;3.30;;;31.40;53.40;;;;;;4909139;29;20032;-72
2023/07/17 13:39:24;;;;;;;6.22;3.33;;;31.00;54.60;;;;;;4908813;29;20028;-70
2023/07/17 13:41:51;;;;;;;5.45;3.20;;;31.10;54.40;;;;;;4908536;29;20103;-70
2023/07/17 13:44:18;;;;;;;6.60;3.33;;;31.20;54.10;;;;;;4909274;29;20024;-71
2023/07/17 13:46:47;;;;;;;6.78;3.28;;;31.40;54.50;;;;;;4909130;29;20032;-72
2023/07/17 13:49:13;;;;;;;7.57;2.95;;;31.90;53.30;;;;;;4909516;29;20051;-71
2023/07/17 13:51:40;;;;;;;4.70;2.88;;;32.40;53.60;;;;;;4908987;29;20043;-72
2023/07/17 13:54:06;;;;;;;5.65;2.97;;;32.00;53.10;;;;;;4908421;29;20037;-72
2023/07/17 13:56:33;;;;;;;6.28;2.90;;;31.30;54.10;;;;;;4908743;29;20028;-72
2023/07/17 13:59:01;;;;;;;6.38;3.00;;;31.00;55.30;;;;;;4908555;29;20088;-74
2023/07/17 14:01:27;;;;;;;7.15;3.00;;;30.60;55.20;;;;;;4908230;29;20200;-72
2023/07/17 14:03:53;;;;;;;5.43;2.85;;;30.30;55.60;;;;;;4908557;29;20032;-71
2023/07/17 14:06:19;;;;;;;6.18;3.05;;;30.10;56.30;;;;;;4908751;29;20051;-73
2023/07/17 14:08:44;;;;;;;6.40;3.10;;;30.00;56.30;;;;;;4907977;29;20032;-73
2023/07/17 14:11:10;;;;;;;6.57;2.95;;;29.80;56.50;;;;;;4908641;29;20076;-73
2023/07/17 14:13:36;;;;;;;7.28;3.30;;;29.90;57.00;;;;;;4908878;29;20222;-71
2023/07/17 14:16:02;;;;;;;7.80;3.20;;;29.80;57.20;;;;;;4908061;29;20028;-72
2023/07/17 14:18:27;;;;;;;7.82;2.80;;;29.40;57.30;;;;;;4908066;29;20032;-71
2023/07/17 14:20:53;;;;;;;8.10;3.22;;;29.30;57.80;;;;;;4886923;29;20346;-71
2023/07/17 14:23:19;;;;;;;7.03;3.22;;;29.00;58.70;;;;;;4890015;29;20069;-72
2023/07/17 14:25:45;;;;;;;6.05;2.60;;;29.00;58.10;;;;;;4889720;29;20036;-73
2023/07/17 14:28:10;;;;;;;7.60;3.28;;;29.00;57.80;;;;;;4907572;29;20322;-72
2023/07/17 14:30:36;;;;;;;6.40;2.88;;;29.10;57.90;;;;;;4908499;29;20051;-71
2023/07/17 14:33:02;;;;;;;7.78;3.63;;;29.30;57.30;;;;;;4907926;29;20080;-70
2023/07/17 14:35:28;;;;;;;6.28;2.80;;;29.30;57.20;;;;;;4907139;29;20088;-72
2023/07/17 14:37:54;;;;;;;7.40;3.15;;;29.80;56.80;;;;;;4907588;29;20039;-72
2023/07/17 14:40:20;;;;;;;7.20;2.80;;;30.40;56.00;;;;;;4908416;29;20104;-72
2023/07/17 14:42:45;;;;;;;5.32;2.88;;;31.60;54.30;;;;;;4908258;29;20028;-71
2023/07/17 14:45:11;;;;;;;7.18;3.53;;;32.90;53.40;;;;;;4908304;29;20103;-70
2023/07/17 14:47:37;;;;;;;6.35;2.90;;;34.40;51.80;;;;;;4907079;29;20079;-71
2023/07/17 14:50:06;;;;;;;6.75;2.95;;;34.50;50.70;;;;;;4906621;29;20099;-71
2023/07/17 14:52:32;;;;;;;6.22;2.80;;;35.40;50.40;;;;;;4908070;29;20042;-71
2023/07/17 14:54:58;;;;;;;5.40;2.60;;;35.40;49.80;;;;;;4907957;29;20192;-71
2023/07/17 14:57:24;;;;;;;6.18;2.95;;;34.70;50.30;;;;;;4907894;29;20028;-71
2023/07/17 14:59:50;;;;;;;6.57;3.03;;;34.10;51.10;;;;;;4907562;29;20028;-71
2023/07/17 15:02:16;;;;;;;5.60;2.70;;;33.10;51.80;;;;;;4907811;29;20044;-70
2023/07/17 15:04:42;;;;;;;6.70;3.08;;;32.30;52.90;;;;;;4908218;29;20039;-71
2023/07/17 15:07:08;;;;;;;5.65;3.20;;;32.00;53.10;;;;;;4907363;29;20048;-71
2023/07/17 15:09:34;;;;;;;6.72;3.45;;;32.10;53.70;;;;;;4907828;29;20299;-71
2023/07/17 15:12:01;;;;;;;4.65;2.83;;;33.70;52.30;;;;;;4907419;29;20040;-72
2023/07/17 15:14:27;;;;;;;6.97;2.75;;;35.00;50.00;;;;;;4907799;29;20040;-71
2023/07/17 15:16:52;;;;;;;6.28;3.17;;;34.80;50.20;;;;;;4907615;29;20063;-71
2023/07/17 15:19:18;;;;;;;4.95;2.70;;;34.10;50.60;;;;;;4908038;29;20040;-70
2023/07/17 15:21:44;;;;;;;6.35;2.80;;;34.40;51.10;;;;;;4908117;29;20067;-71
2023/07/17 15:24:10;;;;;;;5.20;2.75;;;35.00;50.10;;;;;;4907230;29;20028;-71
2023/07/17 15:26:35;;;;;;;4.82;2.95;;;35.20;50.20;;;;;;4907479;29;20040;-71
2023/07/17 15:29:01;;;;;;;6.05;2.85;;;35.00;49.60;;;;;;4907316;29;20041;-72
2023/07/17 15:31:27;;;;;;;5.50;2.90;;;34.10;50.70;;;;;;4907413;29;20081;-71
2023/07/17 15:33:55;;;;;;;5.95;2.90;;;33.10;52.00;;;;;;4907027;29;20222;-72
2023/07/17 15:36:21;;;;;;;7.90;3.15;;;32.70;52.30;;;;;;4907702;29;20095;-72
2023/07/17 15:38:47;;;;;;;7.70;3.08;;;32.10;52.90;;;;;;4907791;29;20064;-71
2023/07/17 15:41:14;;;;;;;5.03;2.75;;;31.60;53.60;;;;;;4906972;29;20051;-72
2023/07/17 15:43:39;;;;;;;6.07;3.00;;;32.60;53.10;;;;;;4907435;29;20067;-70
2023/07/17 15:46:05;;;;;;;7.20;2.92;;;34.30;51.40;;;;;;4907140;29;20025;-70
2023/07/17 15:48:31;;;;;;;5.50;3.03;;;35.50;49.50;;;;;;4907320;29;20048;-71
2023/07/17 15:50:56;;;;;;;4.25;2.58;;;35.20;49.30;;;;;;4906775;29;20044;-71
2023/07/17 15:53:22;;;;;;;4.22;2.72;;;36.40;48.50;;;;;;4907553;29;20068;-72
2023/07/17 15:55:48;;;;;;;5.55;3.15;;;37.30;47.90;;;;;;4907345;29;20035;-72
2023/07/17 15:58:14;;;;;;;4.57;2.75;;;38.70;46.50;;;;;;4905852;29;20028;-72
2023/07/17 16:00:41;;;;;;;5.47;2.67;;;39.90;45.70;;;;;;4907512;29;20231;-72
2023/07/17 16:03:07;;;;;;;5.53;3.10;;;40.50;45.40;;;;;;4907638;29;20062;-69
2023/07/17 16:05:33;;;;;;;7.63;2.83;;;41.80;45.00;;;;;;4911295;29;20056;-74
2023/07/17 16:07:58;;;;;;;4.70;2.72;;;42.30;43.70;;;;;;4910877;29;20047;-73
2023/07/17 16:10:24;;;;;;;4.90;2.70;;;41.80;43.20;;;;;;4910886;29;20071;-70
2023/07/17 16:12:50;;;;;;;4.65;2.78;;;40.90;43.90;;;;;;4910828;29;20049;-72
2023/07/17 16:15:16;;;;;;;5.90;2.75;;;40.70;44.10;;;;;;4910248;29;20310;-72
2023/07/17 16:17:42;;;;;;;6.07;3.35;;;40.20;44.40;;;;;;4910831;29;20099;-71
2023/07/17 16:20:08;;;;;;;5.10;2.58;;;39.50;44.50;;;;;;4910344;29;20084;-71
2023/07/17 16:22:33;;;;;;;6.50;2.58;;;39.40;44.70;;;;;;4911041;29;20048;-71
2023/07/17 16:24:59;;;;;;;6.25;2.83;;;40.30;44.60;;;;;;4910270;29;20028;-72
2023/07/17 16:27:25;;;;;;;7.07;2.50;;;39.90;44.30;;;;;;4934912;29;20301;-70
2023/07/17 16:29:51;;;;;;;5.35;2.67;;;40.10;44.50;;;;;;4910728;29;20035;-72
2023/07/17 16:32:16;;;;;;;4.65;2.80;;;40.20;44.30;;;;;;4910155;29;20045;-70
2023/07/17 16:34:42;;;;;;;5.40;2.88;;;40.00;44.00;;;;;;4910839;29;20039;-72
2023/07/17 16:37:08;;;;;;;5.47;2.63;;;39.20;44.60;;;;;;4910256;29;20105;-71
2023/07/17 16:39:33;;;;;;;6.07;3.10;;;38.50;45.20;;;;;;4911182;29;20027;-72
2023/07/17 16:41:59;;;;;;;5.60;2.65;;;38.80;44.80;;;;;;4910123;29;20251;-71
2023/07/17 16:44:25;;;;;;;5.60;2.63;;;38.60;44.80;;;;;;4910667;29;20039;-71
2023/07/17 16:46:51;;;;;;;6.78;2.92;;;38.70;44.90;;;;;;4910367;29;20370;-71
2023/07/17 16:49:16;;;;;;;6.20;2.55;;;38.10;45.40;;;;;;4909861;29;20033;-70
2023/07/17 16:51:42;;;;;;;5.43;2.80;;;37.90;45.90;;;;;;4910079;29;20048;-71
2023/07/17 16:54:08;;;;;;;5.32;2.70;;;36.40;46.90;;;;;;4909642;29;20219;-70
2023/07/17 16:56:34;;;;;;;6.47;2.78;;;35.10;48.10;;;;;;4910525;29;20040;-70
2023/07/17 16:59:00;;;;;;;11.00;4.95;;;34.00;49.60;;;;;;4909058;29;20067;-71
2023/07/17 17:01:26;;;;;;;7.00;3.15;;;32.70;50.70;;;;;;4910015;29;20295;-70
2023/07/17 17:03:52;;;;;;;6.43;3.10;;;31.60;52.30;;;;;;4909971;29;20213;-70
2023/07/17 17:06:18;;;;;;;6.43;3.50;;;31.00;53.20;;;;;;4909841;29;20041;-71
2023/07/17 17:08:43;;;;;;;5.35;3.00;;;30.90;53.40;;;;;;4909887;29;20032;-71
2023/07/17 17:11:09;;;;;;;5.38;3.10;;;30.70;53.50;;;;;;4909432;29;20109;-70
2023/07/17 17:13:35;;;;;;;7.35;3.10;;;30.40;54.10;;;;;;4910232;29;20314;-71
2023/07/17 17:16:00;;;;;;;5.18;3.13;;;30.60;53.10;;;;;;4908368;29;20096;-71
2023/07/17 17:18:26;;;;;;;8.05;2.80;;;30.10;53.80;;;;;;4909006;29;20056;-69
2023/07/17 17:20:52;;;;;;;4.40;2.50;;;30.10;53.90;;;;;;4909851;29;20096;-71
2023/07/17 17:23:18;;;;;;;6.30;2.83;;;29.80;54.60;;;;;;4909484;29;20095;-71
2023/07/17 17:25:43;;;;;;;6.07;3.00;;;30.90;54.00;;;;;;4909964;29;20060;-70
2023/07/17 17:28:12;;;;;;;5.10;2.63;;;32.80;52.10;;;;;;4909396;29;20234;-71
2023/07/17 17:30:38;;;;;;;6.30;2.80;;;34.70;49.20;;;;;;4909433;29;20040;-71
2023/07/17 17:33:04;;;;;;;5.72;2.30;;;35.80;48.40;;;;;;4908109;29;20345;-74
2023/07/17 17:35:30;;;;;;;7.68;2.22;;;36.80;46.50;;;;;;4893096;29;20032;-72
2023/07/17 17:37:56;;;;;;;4.82;2.53;;;36.80;45.80;;;;;;4909675;29;20196;-73
2023/07/17 17:40:22;;;;;;;4.28;2.35;;;36.40;45.80;;;;;;4909376;29;20275;-73
2023/07/17 17:42:47;;;;;;;5.13;2.17;;;36.50;45.50;;;;;;4909575;29;20033;-73
2023/07/17 17:45:14;;;;;;;5.68;2.30;;;36.30;45.60;;;;;;4908849;29;20322;-72
2023/07/17 17:47:43;;;;;;;4.93;2.22;;;35.90;45.70;;;;;;4909377;29;20024;-72